Time;durP1;ratioP1;P1;durP2;ratioP2;P2;SDS_P1;SDS_P2;PMS_P1;PMS_P2;Temp;Humidity;BMP_temperature;BMP_pressure;BME280_temperature;BME280_humidity;BME280_pressure;Samples;Min_cycle;Max_cycle;Signal;HPM_P1;HPM_P2
2022/05/28 00:00:35;;;;;;;2.75;1.12;;;;;;;10.61;100.00;98994.41;1705038;82;21000;-59
2022/05/28 00:03:03;;;;;;;3.98;2.17;;;;;;;10.54;100.00;98974.08;1707274;82;20999;-59
2022/05/28 00:05:30;;;;;;;2.30;1.25;;;;;;;10.59;100.00;98988.45;1728490;81;21458;-59
2022/05/28 00:07:56;;;;;;;2.12;1.05;;;;;;;10.57;100.00;98970.78;1706804;82;21011;-59
2022/05/28 00:10:23;;;;;;;;;;;;;;;10.58;100.00;98962.88;1721694;82;21079;-60
2022/05/28 00:12:51;;;;;;;3.08;1.40;;;;;;;10.59;100.00;98952.27;1721107;81;20148;-60
2022/05/28 00:15:19;;;;;;;3.08;1.22;;;;;;;10.56;100.00;98940.02;1722355;82;21506;-60
2022/05/28 00:17:47;;;;;;;1.95;1.17;;;;;;;10.54;100.00;98918.30;1718082;82;21485;-60
2022/05/28 00:20:13;;;;;;;2.12;1.02;;;;;;;10.48;100.00;98940.69;1718433;82;21130;-60
2022/05/28 00:22:41;;;;;;;3.27;1.25;;;;;;;10.44;100.00;98932.84;1714753;82;20980;-60
2022/05/28 00:25:10;;;;;;;3.05;1.10;;;;;;;10.45;100.00;98931.17;1720378;82;21038;-59
2022/05/28 00:27:37;;;;;;;2.67;1.02;;;;;;;10.47;100.00;98912.66;1714220;82;21038;-60
2022/05/28 00:30:05;;;;;;;3.50;1.12;;;;;;;10.51;100.00;98943.37;1713955;82;21051;-60
2022/05/28 00:32:32;;;;;;;1.47;1.05;;;;;;;10.52;100.00;98946.36;1720651;82;21330;-60
2022/05/28 00:34:58;;;;;;;4.53;1.50;;;;;;;10.55;100.00;98954.75;1726736;82;21090;-60
2022/05/28 00:37:25;;;;;;;8.88;1.30;;;;;;;10.54;100.00;98953.12;1718917;82;21046;-59
2022/05/28 00:39:51;;;;;;;3.25;1.37;;;;;;;10.52;100.00;98953.98;1716185;82;21484;-60
2022/05/28 00:42:17;;;;;;;3.85;1.30;;;;;;;10.53;100.00;98953.41;1721333;82;20996;-60
2022/05/28 00:44:44;;;;;;;3.40;1.47;;;;;;;10.52;100.00;98947.17;1722415;82;21555;-60
2022/05/28 00:47:10;;;;;;;;;;;;;;;10.52;100.00;98951.26;1724053;82;21011;-60
2022/05/28 00:49:36;;;;;;;2.80;1.42;;;;;;;10.53;100.00;98947.95;1718411;81;20107;-60
2022/05/28 00:52:05;;;;;;;3.72;1.37;;;;;;;10.47;100.00;98962.19;1721548;82;20996;-60
2022/05/28 00:54:39;;;;;;;4.47;1.60;;;;;;;10.47;100.00;98938.52;1710779;82;21096;-60
2022/05/28 00:57:06;;;;;;;3.98;1.45;;;;;;;10.45;100.00;98927.09;1729156;82;20964;-59
2022/05/28 00:59:34;;;;;;;3.37;1.32;;;;;;;10.45;100.00;98942.63;1674530;83;21115;-60
2022/05/28 01:02:06;;;;;;;2.60;1.60;;;;;;;10.49;100.00;98945.01;1675929;85;21473;-60
2022/05/28 01:04:59;;;;;;;2.58;1.40;;;;;;;10.51;100.00;98952.89;1665189;84;21148;-59
2022/05/28 01:07:49;;;;;;;3.20;1.50;;;;;;;10.53;100.00;98954.22;1677916;83;20994;-60
2022/05/28 01:10:28;;;;;;;5.20;1.40;;;;;;;10.48;100.00;98948.30;1714779;82;21065;-58
2022/05/28 01:13:41;;;;;;;2.20;1.60;;;;;;;10.43;100.00;98956.52;1718485;82;21042;-58
2022/05/28 01:16:12;;;;;;;3.83;1.47;;;;;;;10.44;100.00;98955.97;1713529;82;21487;-58
2022/05/28 01:18:47;;;;;;;4.65;1.42;;;;;;;10.44;100.00;98951.34;1714114;82;21058;-58
2022/05/28 01:21:38;;;;;;;3.85;1.47;;;;;;;10.45;100.00;98937.98;1731068;82;21079;-58
2022/05/28 01:24:37;;;;;;;3.10;1.60;;;;;;;10.42;100.00;98927.67;1708806;82;21652;-58
2022/05/28 01:27:09;;;;;;;3.10;1.52;;;;;;;10.38;100.00;98929.92;1716465;82;21071;-58
2022/05/28 01:29:41;;;;;;;3.02;1.42;;;;;;;10.40;100.00;98938.59;1681172;83;21126;-57
2022/05/28 01:32:07;;;;;;;4.75;1.40;;;;;;;10.39;100.00;98945.95;1715098;82;21000;-57
2022/05/28 01:34:35;;;;;;;3.08;1.60;;;;;;;10.38;100.00;98938.88;1714522;82;21625;-58
2022/05/28 01:37:03;;;;;;;4.65;1.55;;;;;;;10.31;100.00;98946.57;1714782;82;20983;-58
2022/05/28 01:39:30;;;;;;;3.05;1.32;;;;;;;10.31;100.00;98956.64;1719689;81;21047;-57
2022/05/28 01:41:56;;;;;;;4.37;1.70;;;;;;;10.37;100.00;98968.56;1723159;82;20948;-59
2022/05/28 01:44:23;;;;;;;3.98;1.70;;;;;;;10.40;100.00;98945.40;1713551;82;21043;-58
2022/05/28 01:46:49;;;;;;;2.60;1.55;;;;;;;10.41;100.00;98949.20;1731195;82;21507;-59
2022/05/28 01:49:18;;;;;;;6.15;1.87;;;;;;;10.42;100.00;98951.34;1724105;82;21102;-58
2022/05/28 01:51:56;;;;;;;2.40;1.52;;;;;;;10.38;100.00;98966.08;1720789;82;20940;-59
2022/05/28 01:54:27;;;;;;;2.65;1.50;;;;;;;10.32;100.00;98963.16;1711120;82;21053;-58
2022/05/28 01:56:53;;;;;;;3.27;1.50;;;;;;;10.33;100.00;98947.11;1707845;82;21015;-58
2022/05/28 01:59:24;;;;;;;4.12;1.65;;;;;;;10.33;100.00;98939.50;1719163;82;20990;-58
2022/05/28 02:01:51;;;;;;;5.03;1.75;;;;;;;10.34;100.00;98950.10;1718775;82;21505;-58
2022/05/28 02:04:18;;;;;;;4.65;1.62;;;;;;;10.36;100.00;98933.47;1718531;82;21044;-58
2022/05/28 02:06:45;;;;;;;2.83;1.72;;;;;;;10.34;100.00;98929.70;1718023;82;21526;-58
2022/05/28 02:09:18;;;;;;;2.55;1.60;;;;;;;10.30;100.00;98924.57;1720639;81;21038;-58
2022/05/28 02:12:00;;;;;;;2.83;1.75;;;;;;;10.30;100.00;98930.55;1729626;82;20999;-59
2022/05/28 02:14:47;;;;;;;3.58;1.65;;;;;;;10.34;100.00;98924.25;1710343;82;21114;-59
2022/05/28 02:17:22;;;;;;;3.85;1.52;;;;;;;10.34;100.00;98924.80;1716264;82;21000;-58
2022/05/28 02:20:04;;;;;;;3.08;1.70;;;;;;;10.32;100.00;98923.72;1713055;82;21194;-58
2022/05/28 02:22:48;;;;;;;3.70;1.90;;;;;;;10.34;100.00;98932.41;1717412;82;21015;-58
2022/05/28 02:25:35;;;;;;;2.72;1.70;;;;;;;10.36;100.00;98952.52;1678646;83;21071;-58
2022/05/28 02:28:02;;;;;;;4.00;1.60;;;;;;;10.34;100.00;98967.78;1680033;82;21491;-58
2022/05/28 02:30:29;;;;;;;4.87;1.62;;;;;;;10.33;100.00;98965.34;1674976;84;21080;-58
2022/05/28 02:33:03;;;;;;;4.28;1.85;;;;;;;10.33;100.00;98953.91;1722829;82;21080;-59
2022/05/28 02:35:30;;;;;;;3.77;1.80;;;;;;;10.35;100.00;98948.98;1720758;82;21048;-57
2022/05/28 02:37:57;;;;;;;1.87;1.30;;;;;;;10.37;100.00;98943.27;1730311;82;21646;-57
2022/05/28 02:40:23;;;;;;;;;;;;;;;10.27;100.00;98927.06;1707291;83;21076;-58
2022/05/28 02:42:49;;;;;;;3.85;1.77;;;;;;;10.30;100.00;98945.52;1715916;82;20129;-58
2022/05/28 02:45:16;;;;;;;3.17;1.70;;;;;;;10.26;100.00;98949.91;1709759;82;21070;-58
2022/05/28 02:47:44;;;;;;;4.42;1.62;;;;;;;10.30;100.00;98951.77;1729626;82;20944;-58
2022/05/28 02:50:12;;;;;;;4.67;1.98;;;;;;;10.36;100.00;98955.23;1730363;81;21139;-58
2022/05/28 02:52:39;;;;;;;3.37;1.60;;;;;;;10.41;100.00;98961.45;1718070;82;21013;-58
2022/05/28 02:55:06;;;;;;;4.87;1.62;;;;;;;10.50;100.00;98954.80;1709145;82;21047;-58
2022/05/28 02:57:35;;;;;;;5.75;1.90;;;;;;;10.55;100.00;98953.39;1725760;82;21399;-59
2022/05/28 03:00:07;;;;;;;3.98;1.70;;;;;;;10.53;100.00;98943.88;1714378;82;21672;-58
2022/05/28 03:02:34;;;;;;;4.78;1.77;;;;;;;10.54;100.00;98947.69;1709333;82;20999;-59
2022/05/28 03:05:00;;;;;;;3.02;1.65;;;;;;;10.61;100.00;98945.42;1714212;82;21015;-59
2022/05/28 03:07:27;;;;;;;3.62;1.70;;;;;;;10.66;100.00;98930.95;1726607;82;21042;-59
2022/05/28 03:09:54;;;;;;;3.05;1.50;;;;;;;10.67;100.00;98952.95;1721705;82;21078;-58
2022/05/28 03:12:21;;;;;;;3.33;1.72;;;;;;;10.69;100.00;98958.39;1717320;82;20991;-58
2022/05/28 03:14:47;;;;;;;3.10;1.85;;;;;;;10.70;100.00;98961.93;1716728;82;21031;-58
2022/05/28 03:17:14;;;;;;;3.37;1.72;;;;;;;10.82;100.00;98963.13;1719375;82;21516;-58
2022/05/28 03:19:40;;;;;;;;;;;;;;;10.92;100.00;98959.44;1717579;82;21082;-58
2022/05/28 03:22:07;;;;;;;2.22;1.50;;;;;;;11.18;100.00;98973.53;1725400;82;20410;-57
2022/05/28 03:24:34;;;;;;;3.50;1.70;;;;;;;11.14;100.00;98967.86;1681330;83;21147;-58
2022/05/28 03:27:00;;;;;;;3.50;1.70;;;;;;;11.12;100.00;98966.55;1731964;82;21538;-58
2022/05/28 03:29:27;;;;;;;3.08;1.95;;;;;;;11.16;100.00;98973.03;1727354;81;21015;-58
2022/05/28 03:31:53;;;;;;;3.37;1.90;;;;;;;11.15;100.00;98964.59;1725232;81;21623;-58
2022/05/28 03:34:19;;;;;;;;;;;;;;;11.12;100.00;98968.72;1699687;83;21078;-58
2022/05/28 03:36:47;;;;;;;5.63;1.63;;;;;;;11.07;100.00;98969.33;1650325;85;20104;-62
2022/05/28 03:39:13;;;;;;;3.95;1.77;;;;;;;10.94;100.00;98965.42;1674385;85;21061;-59
2022/05/28 03:41:40;;;;;;;3.20;2.00;;;;;;;11.04;100.00;98977.54;1724491;81;21687;-60
2022/05/28 03:44:08;;;;;;;4.95;1.95;;;;;;;11.28;100.00;98973.38;1721603;81;21061;-58
2022/05/28 03:46:35;;;;;;;5.30;1.92;;;;;;;11.50;100.00;98968.16;1730959;82;21733;-58
2022/05/28 03:49:06;;;;;;;5.25;2.08;;;;;;;11.75;100.00;98972.42;1726950;81;21116;-60
2022/05/28 03:51:32;;;;;;;3.58;1.80;;;;;;;11.98;100.00;98965.47;1727906;81;21017;-60
2022/05/28 03:53:59;;;;;;;;;;;;;;;12.24;100.00;98962.29;1729868;81;21046;-60
2022/05/28 03:56:33;;;;;;;3.55;1.80;;;;;;;12.44;100.00;98966.00;1732706;82;20129;-60
2022/05/28 03:59:00;;;;;;;3.95;1.90;;;;;;;12.51;100.00;98962.30;1714600;82;21097;-60
2022/05/28 04:01:26;;;;;;;;;;;;;;;12.53;100.00;98963.38;1726545;82;21490;-59
2022/05/28 04:03:52;;;;;;;3.90;1.90;;;;;;;12.48;100.00;98956.91;1728246;81;20509;-59
2022/05/28 04:06:19;;;;;;;4.67;2.20;;;;;;;12.33;100.00;98953.09;1723227;81;21581;-61
2022/05/28 04:08:46;;;;;;;4.03;2.15;;;;;;;12.24;100.00;98954.92;1712360;82;21035;-59
2022/05/28 04:11:13;;;;;;;;;;;;;;;12.21;100.00;98955.52;1732986;81;20995;-59
2022/05/28 04:13:40;;;;;;;4.20;2.70;;;;;;;12.20;100.00;98952.53;1721849;81;20493;-59
2022/05/28 04:16:08;;;;;;;4.10;2.40;;;;;;;12.10;100.00;98955.45;1731862;82;21039;-59
2022/05/28 04:18:36;;;;;;;4.87;2.22;;;;;;;12.07;100.00;98962.88;1725128;82;21067;-60
2022/05/28 04:21:02;;;;;;;4.17;2.20;;;;;;;12.12;100.00;98956.50;1723942;82;21399;-59
2022/05/28 04:23:29;;;;;;;4.40;2.33;;;;;;;12.12;100.00;98961.95;1721719;81;21065;-59
2022/05/28 04:25:56;;;;;;;3.52;2.08;;;;;;;12.08;100.00;98965.84;1727656;81;21605;-60
2022/05/28 04:28:23;;;;;;;4.25;2.05;;;;;;;12.19;100.00;98970.55;1723623;81;21105;-60
2022/05/28 04:30:50;;;;;;;5.42;2.20;;;;;;;12.37;100.00;98980.05;1708284;83;21130;-61
2022/05/28 04:33:16;;;;;;;3.70;2.40;;;;;;;12.53;100.00;98979.21;1725380;81;21495;-60
2022/05/28 04:35:43;;;;;;;6.05;2.95;;;;;;;12.52;100.00;98975.41;1726335;82;21093;-59
2022/05/28 04:38:09;;;;;;;5.83;2.33;;;;;;;12.49;100.00;98978.20;1722941;82;21154;-59
2022/05/28 04:40:36;;;;;;;4.20;2.20;;;;;;;12.44;100.00;98972.27;1723251;81;21062;-60
2022/05/28 04:43:05;;;;;;;3.47;2.50;;;;;;;12.47;100.00;98966.20;1736507;81;21063;-59
2022/05/28 04:45:31;;;;;;;2.92;2.30;;;;;;;12.54;100.00;98973.98;1739783;81;22088;-59
2022/05/28 04:47:57;;;;;;;;;;;;;;;12.52;100.00;98966.66;1726604;81;21058;-59
2022/05/28 04:50:24;;;;;;;3.98;2.50;;;;;;;12.60;100.00;98965.97;1731378;81;20147;-60
2022/05/28 04:52:51;;;;;;;5.65;2.40;;;;;;;12.71;100.00;98971.48;1732798;81;20999;-59
2022/05/28 04:55:18;;;;;;;5.35;2.62;;;;;;;13.04;100.00;98980.91;1730607;82;21039;-60
2022/05/28 04:57:44;;;;;;;5.50;2.65;;;;;;;13.25;100.00;98975.29;1725812;81;20990;-60
2022/05/28 05:00:13;;;;;;;;;;;;;;;13.32;100.00;98963.38;1730225;81;21063;-59
2022/05/28 05:02:40;;;;;;;5.80;2.47;;;;;;;13.37;100.00;98970.08;1721701;81;20140;-60
2022/05/28 05:05:07;;;;;;;;;;;;;;;13.66;100.00;98969.12;1729132;82;21003;-60
2022/05/28 05:07:34;;;;;;;3.35;2.27;;;;;;;14.05;100.00;98962.95;1726558;82;20111;-60
2022/05/28 05:10:00;;;;;;;;;;;;;;;14.33;100.00;98970.42;1727496;81;21071;-59
2022/05/28 05:12:26;;;;;;;7.00;2.35;;;;;;;14.52;100.00;98961.45;1725175;82;20407;-59
2022/05/28 05:14:52;;;;;;;;;;;;;;;14.61;100.00;98961.47;1736155;81;21514;-60
2022/05/28 05:17:19;;;;;;;3.40;2.30;;;;;;;14.85;100.00;98959.13;1731019;82;20119;-59
2022/05/28 05:19:46;;;;;;;6.03;2.80;;;;;;;14.91;100.00;98964.72;1726519;81;21072;-60
2022/05/28 05:22:13;;;;;;;;;;;;;;;14.89;100.00;98958.18;1730237;81;21015;-60
2022/05/28 05:24:39;;;;;;;5.20;2.60;;;;;;;14.76;100.00;98965.16;1726785;82;20115;-59
2022/05/28 05:27:08;;;;;;;4.65;2.33;;;;;;;14.45;100.00;98963.25;1729092;82;21090;-60
2022/05/28 05:29:35;;;;;;;3.25;2.27;;;;;;;14.19;100.00;98971.07;1719011;82;21118;-59
2022/05/28 05:32:01;;;;;;;;;;;;;;;14.17;100.00;98978.22;1725673;82;21050;-59
2022/05/28 05:34:27;;;;;;;4.47;2.42;;;;;;;14.24;100.00;98983.27;1723811;82;20137;-59
2022/05/28 05:36:54;;;;;;;4.97;2.87;;;;;;;14.13;100.00;98967.67;1712678;82;21062;-60
2022/05/28 05:39:21;;;;;;;4.62;3.10;;;;;;;14.12;100.00;98973.45;1716714;82;21569;-60
2022/05/28 05:41:48;;;;;;;5.92;2.65;;;;;;;14.08;100.00;98978.73;1721496;82;21062;-60
2022/05/28 05:44:15;;;;;;;4.45;2.77;;;;;;;14.20;100.00;98982.28;1724516;82;21063;-59
2022/05/28 05:46:42;;;;;;;;;;;;;;;14.32;100.00;98977.02;1730645;82;21553;-59
2022/05/28 05:49:09;;;;;;;5.08;2.52;;;;;;;14.30;100.00;98973.23;1727577;82;20509;-60
2022/05/28 05:51:42;;;;;;;3.58;2.20;;;;;;;14.19;100.00;98982.02;1729562;82;21019;-60
2022/05/28 05:54:08;;;;;;;4.10;2.98;;;;;;;14.17;100.00;98991.12;1722381;82;21537;-61
2022/05/28 05:56:34;;;;;;;;;;;;;;;14.24;100.00;98989.53;1728573;82;21001;-59
2022/05/28 05:59:02;;;;;;;4.20;2.22;;;;;;;14.51;100.00;98983.66;1722875;82;20431;-57
2022/05/28 06:01:29;;;;;;;4.67;2.45;;;;;;;14.64;100.00;98982.19;1721360;82;21011;-59
2022/05/28 06:03:55;;;;;;;;;;;;;;;14.82;100.00;98992.64;1725122;82;20995;-59
2022/05/28 06:06:21;;;;;;;3.47;2.22;;;;;;;15.11;100.00;98981.93;1722542;82;20401;-59
2022/05/28 06:08:48;;;;;;;;;;;;;;;15.37;100.00;98984.72;1729023;81;21009;-58
2022/05/28 06:11:14;;;;;;;5.35;2.12;;;;;;;15.74;100.00;98981.92;1724319;82;20095;-58
2022/05/28 06:13:41;;;;;;;4.37;2.30;;;;;;;15.75;100.00;98977.50;1722333;82;21561;-60
2022/05/28 06:16:07;;;;;;;4.62;1.95;;;;;;;15.83;100.00;98973.95;1736661;82;21011;-59
2022/05/28 06:18:33;;;;;;;;;;;;;;;15.91;100.00;98972.30;1737024;81;21007;-60
2022/05/28 06:21:00;;;;;;;3.50;1.60;;;;;;;16.12;100.00;98968.33;1721918;82;20634;-59
2022/05/28 06:23:27;;;;;;;4.62;1.90;;;;;;;16.37;100.00;98973.73;1723768;82;21083;-59
2022/05/28 06:25:54;;;;;;;4.92;1.75;;;;;;;16.65;100.00;98973.36;1723103;82;21418;-59
2022/05/28 06:30:24;;;;;;;4.12;1.50;;;;;;;16.95;100.00;98965.36;1802672;78;22799;-59
2022/05/28 06:32:50;;;;;;;4.37;1.60;;;;;;;17.19;100.00;98969.66;1784685;79;20975;-59
2022/05/28 06:35:17;;;;;;;5.60;1.70;;;;;;;17.63;100.00;98955.04;1755859;80;21039;-60
2022/05/28 06:37:43;;;;;;;3.02;1.45;;;;;;;18.00;100.00;98957.36;1754671;81;21094;-59
2022/05/28 06:40:11;;;;;;;3.30;1.65;;;;;;;18.22;100.00;98951.45;1759283;80;21095;-60
2022/05/28 06:42:38;;;;;;;4.72;1.67;;;;;;;18.45;100.00;98954.62;1738266;81;21035;-59
2022/05/28 06:45:06;;;;;;;3.27;1.60;;;;;;;18.60;100.00;98952.00;1752379;80;21070;-59
2022/05/28 06:47:33;;;;;;;5.40;1.60;;;;;;;18.64;100.00;98954.31;1756877;81;20999;-59
2022/05/28 06:52:45;;;;;;;5.58;1.90;;;;;;;19.00;100.00;98959.59;1756142;80;21074;-58
2022/05/28 06:55:13;;;;;;;4.83;1.57;;;;;;;19.10;100.00;98959.13;1753864;81;21058;-59
2022/05/28 06:57:40;;;;;;;4.28;1.30;;;;;;;19.44;100.00;98953.71;1754722;80;21050;-58
2022/05/28 07:00:09;;;;;;;3.12;1.37;;;;;;;19.38;100.00;98949.77;1761235;80;21088;-57
2022/05/28 07:02:36;;;;;;;4.53;1.47;;;;;;;19.30;100.00;98952.68;1719571;80;21442;-58
2022/05/28 07:05:03;;;;;;;4.12;1.62;;;;;;;19.52;100.00;98953.55;1753202;80;21097;-59
2022/05/28 07:07:30;;;;;;;5.92;1.47;;;;;;;19.48;100.00;98949.10;1735153;83;20983;-60
2022/05/28 07:09:56;;;;;;;4.15;1.70;;;;;;;19.24;100.00;98962.33;1753120;80;21003;-59
2022/05/28 07:12:22;;;;;;;5.28;1.92;;;;;;;19.30;100.00;98955.44;1755584;80;20991;-59
2022/05/28 07:14:50;;;;;;;3.85;1.60;;;;;;;19.25;100.00;98950.95;1764925;80;21494;-58
2022/05/28 07:17:17;;;;;;;4.53;1.67;;;;;;;19.19;100.00;98964.77;1725520;81;20975;-59
2022/05/28 07:19:43;;;;;;;3.90;2.05;;;;;;;19.17;100.00;98955.20;1724322;83;21048;-59
2022/05/28 07:22:10;;;;;;;4.78;2.40;;;;;;;19.38;100.00;98959.42;1706937;83;21476;-60
2022/05/28 07:24:36;;;;;;;5.72;1.57;;;;;;;19.77;100.00;98957.03;1721359;82;21603;-59
2022/05/28 07:27:03;;;;;;;4.67;1.35;;;;;;;19.96;100.00;98959.16;1709750;81;21019;-58
2022/05/28 07:29:30;;;;;;;8.75;4.25;;;;;;;20.07;100.00;98958.30;1685174;83;21064;-59
2022/05/28 07:31:57;;;;;;;3.87;1.35;;;;;;;20.24;100.00;98946.11;1671971;84;21535;-59
2022/05/28 07:34:23;;;;;;;3.85;1.60;;;;;;;20.24;100.00;98946.11;1682755;84;21000;-59
2022/05/28 07:36:50;;;;;;;3.92;1.50;;;;;;;20.13;100.00;98956.87;1662625;85;20988;-59
2022/05/28 07:39:17;;;;;;;2.75;1.30;;;;;;;19.97;100.00;98956.05;1742609;82;21047;-62
2022/05/28 07:41:44;;;;;;;2.77;1.30;;;;;;;20.12;100.00;98953.11;1739653;81;20959;-60
2022/05/28 07:44:11;;;;;;;6.80;2.20;;;;;;;20.37;100.00;98951.03;1737281;80;21043;-59
2022/05/28 07:46:38;;;;;;;4.15;1.72;;;;;;;20.52;100.00;98944.70;1742212;81;21015;-59
2022/05/28 07:49:04;;;;;;;4.62;1.27;;;;;;;20.48;100.00;98952.89;1738521;81;21047;-60
2022/05/28 07:51:31;;;;;;;4.62;1.35;;;;;;;20.61;100.00;98967.45;1767598;81;21457;-60
2022/05/28 07:53:58;;;;;;;3.65;1.40;;;;;;;20.66;100.00;98952.77;1753222;81;21138;-56
2022/05/28 07:56:24;;;;;;;4.90;1.72;;;;;;;20.54;100.00;98956.22;1742170;82;21003;-61
2022/05/28 07:58:51;;;;;;;4.72;1.82;;;;;;;20.54;100.00;98956.22;1743456;81;21585;-60
2022/05/28 08:01:21;;;;;;;5.15;1.27;;;;;;;20.54;100.00;98956.22;1737626;81;21395;-63
2022/05/28 08:03:48;;;;;;;5.45;1.17;;;;;;;20.45;100.00;98955.57;1745106;80;21019;-64
2022/05/28 08:06:16;;;;;;;4.00;1.20;;;;;;;20.51;100.00;98945.88;1703606;82;21452;-61
2022/05/28 08:08:43;;;;;;;7.05;1.30;;;;;;;20.64;100.00;98953.72;1743974;81;21098;-60
2022/05/28 08:11:10;;;;;;;4.42;1.80;;;;;;;20.48;100.00;98958.42;1758361;81;20939;-61
2022/05/28 08:13:38;;;;;;;4.15;1.30;;;;;;;20.40;100.00;98956.66;1747310;81;20988;-59
2022/05/28 08:16:04;;;;;;;3.75;1.20;;;;;;;20.47;100.00;98951.31;1738629;82;20956;-60
2022/05/28 08:18:31;;;;;;;4.62;1.27;;;;;;;20.79;100.00;98959.84;1750371;81;21085;-63
2022/05/28 08:23:43;;;;;;;3.72;1.10;;;;;;;21.06;100.00;98949.80;1737604;82;21118;-62
2022/05/28 08:26:11;;;;;;;3.15;1.45;;;;;;;21.30;100.00;98952.36;1742067;81;21482;-62
2022/05/28 08:28:39;;;;;;;3.40;1.40;;;;;;;21.33;97.61;98964.09;1744230;82;21119;-61
2022/05/28 08:31:05;;;;;;;4.92;1.20;;;;;;;21.55;91.26;98970.91;1751847;82;20963;-61
2022/05/28 08:33:32;;;;;;;3.85;1.27;;;;;;;21.70;92.58;98960.93;1753345;80;21007;-59
2022/05/28 08:35:59;;;;;;;8.08;1.55;;;;;;;21.47;82.55;98960.05;1751033;80;20974;-59
2022/05/28 08:38:26;;;;;;;3.67;0.98;;;;;;;21.05;84.94;98978.63;1743555;80;21011;-60
2022/05/28 08:41:12;;;;;;;3.98;1.40;;;;;;;20.91;93.54;98971.94;1744923;81;21494;-60
2022/05/28 08:43:48;;;;;;;4.25;1.42;;;;;;;20.98;95.81;98966.00;1747562;81;21023;-60
2022/05/28 08:46:15;;;;;;;4.03;1.00;;;;;;;21.04;98.27;98970.12;1741934;82;21054;-61
2022/05/28 08:48:51;;;;;;;2.92;1.02;;;;;;;21.37;99.17;98969.70;1748772;81;21599;-62
2022/05/28 08:51:34;;;;;;;5.58;1.20;;;;;;;21.37;99.17;98969.70;1746799;81;21588;-62
2022/05/28 08:54:30;;;;;;;5.10;1.32;;;;;;;21.49;100.00;98972.94;1758942;80;21541;-60
2022/05/28 08:57:02;;;;;;;7.35;1.77;;;;;;;21.64;85.73;98972.09;1754676;80;21538;-61
2022/05/28 08:59:34;;;;;;;4.72;1.32;;;;;;;21.75;94.51;98968.97;1750217;82;21004;-62
2022/05/28 09:02:00;;;;;;;6.22;2.20;;;;;;;21.86;79.36;98963.64;1749518;81;20972;-62
2022/05/28 09:04:34;;;;;;;4.75;1.40;;;;;;;21.83;84.82;98971.50;1746691;80;21054;-61
2022/05/28 09:07:05;;;;;;;4.15;1.17;;;;;;;21.82;96.89;98973.27;1751500;81;21405;-62
2022/05/28 09:09:44;;;;;;;3.67;1.30;;;;;;;21.93;82.52;98967.98;1751236;82;21107;-63
2022/05/28 09:12:32;;;;;;;4.53;1.47;;;;;;;21.95;79.66;98963.66;1751184;81;20948;-62
2022/05/28 09:14:59;;;;;;;3.67;0.90;;;;;;;21.91;77.29;98975.25;1758830;81;21529;-62
2022/05/28 09:17:38;;;;;;;2.72;1.15;;;;;;;21.55;87.08;98963.98;1752175;81;21525;-60
2022/05/28 09:20:17;;;;;;;4.17;1.32;;;;;;;21.50;84.25;98957.94;1717472;81;21105;-58
2022/05/28 09:22:44;;;;;;;5.87;1.10;;;;;;;21.50;83.02;98963.47;1746807;81;20972;-58
2022/05/28 09:25:10;;;;;;;6.05;1.10;;;;;;;21.39;72.01;98963.24;1748623;80;21386;-57
2022/05/28 09:27:42;;;;;;;3.83;1.35;;;;;;;21.21;76.95;98958.69;1747725;81;21047;-58
2022/05/28 09:30:17;;;;;;;6.22;1.32;;;;;;;21.12;68.92;98966.36;1741006;81;21089;-58
2022/05/28 09:33:01;;;;;;;5.62;1.42;;;;;;;21.02;77.87;98957.78;1751792;80;20987;-60
2022/05/28 09:35:56;;;;;;;4.97;1.32;;;;;;;20.77;73.93;98955.80;1744739;82;21047;-58
2022/05/28 09:38:46;;;;;;;5.03;1.00;;;;;;;20.50;85.72;98955.32;1750282;81;21042;-58
2022/05/28 09:41:23;;;;;;;4.20;1.32;;;;;;;20.28;92.30;98956.14;1763880;80;21006;-59
2022/05/28 09:44:05;;;;;;;6.03;2.25;;;;;;;20.14;97.84;98953.55;1717851;82;21511;-58
2022/05/28 09:46:40;;;;;;;7.15;3.20;;;;;;;20.03;99.49;98943.58;1715772;83;21495;-60
2022/05/28 09:49:20;;;;;;;2.22;1.02;;;;;;;20.02;98.53;98953.02;1748224;81;21377;-58
2022/05/28 09:52:09;;;;;;;5.12;1.37;;;;;;;19.96;91.11;98950.30;1745936;80;20999;-57
2022/05/28 09:54:36;;;;;;;5.15;1.50;;;;;;;19.75;94.72;98941.41;1756250;80;21054;-57
2022/05/28 09:57:27;;;;;;;5.70;1.70;;;;;;;19.67;85.21;98939.59;1750685;80;20995;-57
2022/05/28 09:59:59;;;;;;;4.75;1.30;;;;;;;19.69;91.70;98934.54;1750909;81;21030;-57
2022/05/28 10:02:28;;;;;;;3.47;1.17;;;;;;;19.69;90.88;98929.02;1749734;80;21517;-58
2022/05/28 10:05:14;;;;;;;3.92;1.20;;;;;;;19.73;87.31;98927.16;1753071;80;21039;-58
2022/05/28 10:07:50;;;;;;;3.23;0.90;;;;;;;19.67;79.58;98929.36;1725432;80;21027;-58
2022/05/28 10:10:29;;;;;;;4.70;1.02;;;;;;;19.57;84.45;98927.67;1756907;80;21071;-58
2022/05/28 10:13:13;;;;;;;3.45;1.00;;;;;;;19.45;87.09;98916.69;1746907;81;21500;-58
2022/05/28 10:15:43;;;;;;;4.50;1.12;;;;;;;19.53;78.87;98925.38;1749306;80;21058;-57
2022/05/28 10:18:13;;;;;;;5.95;1.10;;;;;;;19.43;84.60;98928.63;1722018;81;21052;-58
2022/05/28 10:20:40;;;;;;;8.33;1.60;;;;;;;19.42;87.73;98928.39;1749403;80;21030;-57
2022/05/28 10:23:16;;;;;;;6.58;1.50;;;;;;;19.40;82.82;98923.22;1748418;81;21487;-61
2022/05/28 10:25:48;;;;;;;8.68;2.10;;;;;;;19.35;92.32;98927.02;1731900;80;21018;-61
2022/05/28 10:28:48;;;;;;;3.12;0.93;;;;;;;19.44;95.11;98921.97;1750046;81;21011;-61
2022/05/28 10:31:31;;;;;;;4.83;1.47;;;;;;;19.58;87.57;98918.24;1744325;81;21448;-61
2022/05/28 10:33:58;;;;;;;2.67;1.10;;;;;;;19.68;92.73;98917.16;1738872;81;21475;-62
2022/05/28 10:36:31;;;;;;;3.60;1.10;;;;;;;19.82;90.76;98914.80;1666575;83;21558;-62
2022/05/28 10:39:11;;;;;;;3.72;1.20;;;;;;;19.95;96.87;98916.91;1752387;80;21031;-61
2022/05/28 10:41:38;;;;;;;4.92;1.40;;;;;;;20.11;97.25;98915.58;1745430;82;21031;-61
2022/05/28 10:44:05;;;;;;;5.28;1.00;;;;;;;20.26;80.12;98912.81;1705702;83;21625;-61
2022/05/28 10:47:01;;;;;;;6.33;1.15;;;;;;;20.22;72.03;98917.47;1748667;81;21059;-62
2022/05/28 10:49:49;;;;;;;4.47;1.17;;;;;;;20.15;71.92;98915.91;1679213;83;21095;-62
2022/05/28 10:52:30;;;;;;;2.17;0.90;;;;;;;20.02;70.36;98916.30;1671196;84;21076;-62
2022/05/28 10:55:10;;;;;;;5.95;2.35;;;;;;;19.72;72.26;98908.98;1677414;82;21079;-62
2022/05/28 10:57:54;;;;;;;5.17;1.20;;;;;;;19.63;79.99;98911.07;1746182;80;21514;-62
2022/05/28 11:00:35;;;;;;;5.62;1.20;;;;;;;19.62;82.94;98922.72;1741699;82;21047;-62
2022/05/28 11:03:35;;;;;;;2.47;0.80;;;;;;;19.42;80.07;98925.06;1745683;78;20992;-59
2022/05/28 11:06:39;;;;;;;4.62;0.90;;;;;;;19.24;76.92;98912.66;1745224;80;22034;-62
2022/05/28 11:09:30;;;;;;;2.02;1.05;;;;;;;19.24;81.92;98920.36;1736968;81;21105;-60
2022/05/28 11:12:22;;;;;;;4.37;0.98;;;;;;;19.38;82.10;98902.05;1739204;80;20991;-60
2022/05/28 11:15:28;;;;;;;5.65;3.30;;;;;;;19.28;66.85;98916.33;1742514;80;21098;-60
2022/05/28 11:18:40;;;;;;;24.52;20.68;;;;;;;18.92;69.05;98914.44;1700404;81;21547;-60
2022/05/28 11:21:39;;;;;;;24.85;19.85;;;;;;;18.63;72.59;98909.19;1740111;80;21937;-63
2022/05/28 11:24:33;;;;;;;4.15;2.27;;;;;;;18.39;76.07;98911.30;1744497;80;21577;-67
2022/05/28 11:27:35;;;;;;;22.35;17.77;;;;;;;18.25;75.47;98913.58;1745781;80;21810;-68
2022/05/28 11:30:19;;;;;;;6.70;3.10;;;;;;;18.36;79.83;98901.78;1686078;83;21079;-70
2022/05/28 11:33:10;;;;;;;5.58;1.52;;;;;;;18.49;83.87;98901.80;1721716;82;20964;-67
2022/05/28 11:35:50;;;;;;;7.62;4.45;;;;;;;18.78;81.30;98918.94;1720393;80;21596;-69
2022/05/28 11:38:33;;;;;;;2.85;0.75;;;;;;;19.02;72.83;98907.09;1742423;80;21035;-73
2022/05/28 11:41:06;;;;;;;3.33;1.47;;;;;;;19.24;69.16;98912.66;1741422;82;21068;-69
2022/05/28 11:43:43;;;;;;;2.00;1.20;;;;;;;19.33;65.81;98912.77;1744469;82;21031;-66
2022/05/28 11:46:21;;;;;;;7.42;3.08;;;;;;;19.28;64.66;98916.33;1745500;81;21035;-68
2022/05/28 11:52:39;;;;;;;4.80;1.47;;;;;;;19.03;65.68;98916.15;1740297;82;21071;-70
2022/05/28 11:55:15;;;;;;;3.10;0.95;;;;;;;18.82;64.25;98921.23;1714303;82;21086;-74
2022/05/28 11:57:56;;;;;;;5.50;1.37;;;;;;;18.65;65.92;98928.94;1707795;82;21007;-75
2022/05/28 12:00:24;;;;;;;6.75;2.58;;;;;;;18.73;73.26;98920.56;1710007;82;21550;-70
2022/05/28 12:03:02;;;;;;;1.90;0.93;;;;;;;18.97;69.20;98919.73;1743781;82;21519;-73